createdAt,value
2019-01-15T00:00:52.172Z,100995.44
2019-01-15T00:03:22.199Z,100994.38
2019-01-15T00:05:51.993Z,100990.37
2019-01-15T00:08:21.664Z,100987.10
2019-01-15T00:10:51.330Z,100984.82
2019-01-15T00:13:20.938Z,100985.20
2019-01-15T00:15:50.516Z,100993.73
2019-01-15T00:18:20.451Z,100989.83
2019-01-15T00:20:50.159Z,100991.53
2019-01-15T00:23:19.855Z,100983.66
2019-01-15T00:25:49.647Z,100990.98
2019-01-15T00:28:19.256Z,100988.09
2019-01-15T00:30:48.988Z,100993.27
2019-01-15T00:33:18.780Z,100998.80
2019-01-15T00:35:48.502Z,100998.80
2019-01-15T00:38:18.345Z,101003.47
2019-01-15T00:40:48.123Z,101009.57
2019-01-15T00:43:17.799Z,101016.81
2019-01-15T00:45:47.818Z,101005.44
2019-01-15T00:48:17.427Z,101006.69
2019-01-15T00:50:47.203Z,101012.36
2019-01-15T00:53:16.826Z,101004.98
2019-01-15T00:55:46.564Z,101004.30
2019-01-15T00:58:16.249Z,101003.26
2019-01-15T01:00:46.006Z,101000.30
2019-01-15T01:03:15.575Z,100999.81
2019-01-15T01:05:45.762Z,101005.09
2019-01-15T01:08:15.561Z,100998.39
2019-01-15T01:10:45.341Z,101004.65
2019-01-15T01:13:14.931Z,100996.06
2019-01-15T01:15:44.718Z,100993.26
2019-01-15T01:18:14.420Z,100996.27
2019-01-15T01:20:45.101Z,100993.83
2019-01-15T01:23:15.196Z,100998.06
2019-01-15T01:25:45.075Z,100995.09
2019-01-15T01:28:14.707Z,100992.30
2019-01-15T01:30:44.559Z,100989.37
2019-01-15T01:33:14.461Z,100995.75
2019-01-15T01:35:45.210Z,100992.83
2019-01-15T01:38:14.924Z,100992.73
2019-01-15T01:40:44.581Z,100985.22
2019-01-15T01:43:14.478Z,100981.40
2019-01-15T01:45:44.212Z,100988.95
2019-01-15T01:48:13.761Z,100987.00
2019-01-15T01:50:43.610Z,100984.14
2019-01-15T01:53:13.255Z,100979.50
2019-01-15T01:55:42.991Z,100976.39
2019-01-15T01:58:13.016Z,100968.56
2019-01-15T02:00:42.691Z,100957.43
2019-01-15T02:03:12.386Z,100963.11
2019-01-15T02:05:42.245Z,100955.06
2019-01-15T02:08:11.931Z,100945.75
2019-01-15T02:10:41.782Z,100949.24
2019-01-15T02:13:11.386Z,100935.95
2019-01-15T02:15:41.564Z,100927.22
2019-01-15T02:18:11.553Z,100934.25
2019-01-15T02:20:41.200Z,100923.91
2019-01-15T02:23:11.119Z,100926.33
2019-01-15T02:25:40.908Z,100931.44
2019-01-15T02:28:10.672Z,100927.13
2019-01-15T02:30:40.764Z,100936.08
2019-01-15T02:33:10.868Z,100925.05
2019-01-15T02:35:40.503Z,100929.23
2019-01-15T02:38:10.418Z,100921.02
2019-01-15T02:40:40.115Z,100924.09
2019-01-15T02:43:12.352Z,100917.31
2019-01-15T02:45:42.054Z,100916.16
2019-01-15T02:48:12.856Z,100909.92
2019-01-15T02:50:42.931Z,100896.54
2019-01-15T02:54:03.170Z,100905.01
2019-01-15T02:56:33.015Z,100901.32
2019-01-15T02:59:09.220Z,100903.12
2019-01-15T03:01:38.890Z,100893.52
2019-01-15T03:04:08.645Z,100883.67
2019-01-15T03:06:38.363Z,100894.58
2019-01-15T03:09:08.370Z,100896.41
2019-01-15T03:11:38.750Z,100886.02
2019-01-15T03:14:09.487Z,100879.70
2019-01-15T03:16:40.297Z,100875.03
2019-01-15T03:19:11.003Z,100870.16
2019-01-15T03:21:41.250Z,100865.77
2019-01-15T03:24:11.327Z,100868.52
2019-01-15T03:26:40.992Z,100872.95
2019-01-15T03:29:10.883Z,100870.26
2019-01-15T03:31:41.255Z,100850.73
2019-01-15T03:34:11.132Z,100856.09
2019-01-15T03:36:40.866Z,100861.34
2019-01-15T03:39:10.878Z,100858.20
2019-01-15T03:41:40.876Z,100854.36
2019-01-15T03:44:10.873Z,100845.19
2019-01-15T03:46:41.236Z,100846.13
2019-01-15T03:49:11.699Z,100833.32
2019-01-15T03:51:41.593Z,100828.95
2019-01-15T03:54:11.500Z,100822.77
2019-01-15T03:56:41.106Z,100812.59
2019-01-15T03:59:11.287Z,100809.34
2019-01-15T04:01:41.077Z,100804.76
2019-01-15T04:04:11.793Z,100803.02
2019-01-15T04:06:41.931Z,100803.17
2019-01-15T04:09:12.096Z,100802.47
2019-01-15T04:11:41.826Z,100791.70
2019-01-15T04:14:11.529Z,100792.95
2019-01-15T04:16:41.258Z,100782.28
2019-01-15T04:19:11.232Z,100766.28
2019-01-15T04:21:41.278Z,100781.08
2019-01-15T04:24:11.097Z,100787.02
2019-01-15T04:26:41.509Z,100784.66
2019-01-15T04:29:11.759Z,100777.69
2019-01-15T04:31:41.794Z,100771.52
2019-01-15T04:34:15.228Z,100762.89
2019-01-15T04:36:45.784Z,100770.09
2019-01-15T04:39:15.564Z,100774.60
2019-01-15T04:41:45.335Z,100772.22
2019-01-15T04:44:16.001Z,100763.21
2019-01-15T04:46:45.783Z,100759.23
2019-01-15T04:49:17.998Z,100761.63
2019-01-15T04:51:48.412Z,100767.80
2019-01-15T04:54:18.129Z,100775.78
2019-01-15T04:56:48.017Z,100775.14
2019-01-15T04:59:19.785Z,100776.34
2019-01-15T05:01:49.736Z,100771.52
2019-01-15T05:04:19.765Z,100760.66
2019-01-15T05:06:49.715Z,100772.16
2019-01-15T05:09:20.145Z,100764.93
2019-01-15T05:11:50.343Z,100754.34
2019-01-15T05:14:20.621Z,100745.48
2019-01-15T05:16:50.276Z,100734.39
2019-01-15T05:19:20.229Z,100752.82
2019-01-15T05:21:50.094Z,100761.61
2019-01-15T05:24:20.240Z,100762.24
2019-01-15T05:26:50.457Z,100758.70
2019-01-15T05:29:23.191Z,100765.73
2019-01-15T05:31:53.530Z,100753.08
2019-01-15T05:34:23.710Z,100754.97
2019-01-15T05:36:53.795Z,100740.16
2019-01-15T05:39:23.580Z,100742.77
2019-01-15T05:41:54.228Z,100743.48
2019-01-15T05:44:24.308Z,100743.39
2019-01-15T05:46:54.337Z,100740.25
2019-01-15T05:49:24.758Z,100735.27
2019-01-15T05:51:56.752Z,100743.48
2019-01-15T05:54:26.909Z,100742.05
2019-01-15T05:56:57.679Z,100741.02
2019-01-15T05:59:30.896Z,100742.86
2019-01-15T06:02:00.964Z,100742.55
2019-01-15T06:04:31.113Z,100738.43
2019-01-15T06:07:00.900Z,100742.61
2019-01-15T06:09:31.017Z,100743.10
2019-01-15T06:12:01.232Z,100742.94
2019-01-15T06:14:31.306Z,100743.26
2019-01-15T06:17:01.860Z,100745.30
2019-01-15T06:19:32.497Z,100753.08
2019-01-15T06:22:02.559Z,100762.34
2019-01-15T06:24:34.177Z,100753.38
2019-01-15T06:27:06.298Z,100761.94
2019-01-15T06:29:36.641Z,100762.34
2019-01-15T06:32:06.336Z,100758.85
2019-01-15T06:34:35.950Z,100757.51
2019-01-15T06:37:05.561Z,100755.83
2019-01-15T06:39:35.135Z,100757.97
2019-01-15T06:42:04.999Z,100762.09
2019-01-15T06:44:37.304Z,100761.86
2019-01-15T06:47:08.617Z,100762.47
2019-01-15T06:49:38.364Z,100762.49
2019-01-15T06:52:08.670Z,100769.36
2019-01-15T06:54:38.341Z,100763.90
2019-01-15T06:57:08.251Z,100762.16
2019-01-15T06:59:46.898Z,100762.40
2019-01-15T07:02:19.762Z,100757.41
2019-01-15T07:04:52.940Z,100762.24
2019-01-15T07:07:22.555Z,100770.81
2019-01-15T07:09:52.059Z,100768.33
2019-01-15T07:12:21.608Z,100766.06
2019-01-15T07:14:51.158Z,100768.57
2019-01-15T07:17:20.778Z,100767.80
2019-01-15T07:19:50.608Z,100772.31
2019-01-15T07:22:20.202Z,100765.58
2019-01-15T07:24:49.734Z,100769.86
2019-01-15T07:27:19.326Z,100768.19
2019-01-15T07:29:48.880Z,100769.38
2019-01-15T07:32:18.429Z,100772.31
2019-01-15T07:34:48.141Z,100769.78
2019-01-15T07:37:17.737Z,100774.12
2019-01-15T07:39:47.613Z,100770.71
2019-01-15T07:42:17.257Z,100777.84
2019-01-15T07:44:46.968Z,100769.47
2019-01-15T07:47:25.171Z,100783.40
2019-01-15T07:49:54.679Z,100774.00
2019-01-15T07:52:24.390Z,100761.62
2019-01-15T07:54:53.842Z,100774.62
2019-01-15T07:57:23.458Z,100774.07
2019-01-15T07:59:53.054Z,100763.91
2019-01-15T08:02:22.608Z,100758.36
2019-01-15T08:04:52.245Z,100753.08
2019-01-15T08:07:21.782Z,100766.55
2019-01-15T08:09:51.233Z,100747.98
2019-01-15T08:12:20.695Z,100740.12
2019-01-15T08:14:50.185Z,100744.50
2019-01-15T08:17:20.077Z,100742.69
2019-01-15T08:19:49.551Z,100746.30
2019-01-15T08:22:19.026Z,100739.50
2019-01-15T08:24:48.516Z,100748.77
2019-01-15T08:27:18.048Z,100755.10
2019-01-15T08:29:47.605Z,100748.09
2019-01-15T08:32:17.072Z,100742.64
2019-01-15T08:34:46.578Z,100741.69
2019-01-15T08:37:16.076Z,100749.05
2019-01-15T08:39:45.557Z,100741.98
2019-01-15T08:42:15.036Z,100746.13
2019-01-15T08:44:44.655Z,100738.38
2019-01-15T08:47:14.257Z,100745.84
2019-01-15T08:49:43.759Z,100750.34
2019-01-15T08:52:13.354Z,100751.23
2019-01-15T08:54:42.847Z,100738.87
2019-01-15T08:57:12.317Z,100743.53
2019-01-15T08:59:41.881Z,100735.67
2019-01-15T09:02:11.391Z,100741.84
2019-01-15T09:04:40.927Z,100734.08
2019-01-15T09:07:10.400Z,100743.41
2019-01-15T09:09:39.913Z,100737.07
2019-01-15T09:12:09.415Z,100739.42
2019-01-15T09:14:40.038Z,100741.73
2019-01-15T09:17:11.125Z,100738.39
2019-01-15T09:19:40.747Z,100737.83
2019-01-15T09:22:10.601Z,100728.07
2019-01-15T09:24:40.146Z,100730.38
2019-01-15T09:27:09.729Z,100731.66
2019-01-15T09:29:39.249Z,100728.39
2019-01-15T09:32:08.831Z,100719.84
2019-01-15T09:34:38.452Z,100721.52
2019-01-15T09:37:09.573Z,100721.59
2019-01-15T09:39:39.241Z,100720.06
2019-01-15T09:42:08.945Z,100710.84
2019-01-15T09:44:38.679Z,100706.97
2019-01-15T09:47:08.251Z,100701.97
2019-01-15T09:49:37.805Z,100704.80
2019-01-15T09:52:12.959Z,100697.92
2019-01-15T09:54:38.594Z,100693.63
2019-01-15T09:57:08.127Z,100687.27
2019-01-15T09:59:37.723Z,100697.28
2019-01-15T10:02:07.342Z,100681.73
2019-01-15T10:04:36.863Z,100682.30
2019-01-15T10:07:06.512Z,100672.02
2019-01-15T10:09:36.245Z,100673.15
2019-01-15T10:12:05.742Z,100662.18
2019-01-15T10:14:41.222Z,100650.52
2019-01-15T10:17:06.489Z,100647.92
2019-01-15T10:19:36.149Z,100643.16
2019-01-15T10:22:05.867Z,100650.30
2019-01-15T10:24:35.785Z,100640.50
2019-01-15T10:27:05.705Z,100644.09
2019-01-15T10:29:35.774Z,100635.67
2019-01-15T10:32:31.519Z,100640.03
2019-01-15T10:35:04.497Z,100629.89
2019-01-15T10:37:34.097Z,100622.72
2019-01-15T10:40:05.020Z,100621.44
2019-01-15T10:42:34.591Z,100610.27
2019-01-15T10:45:06.268Z,100605.97
2019-01-15T10:47:35.840Z,100599.11
2019-01-15T10:50:11.347Z,100603.16
2019-01-15T10:52:40.939Z,100592.58
2019-01-15T10:55:10.548Z,100592.58
2019-01-15T10:57:40.166Z,100587.55
2019-01-15T11:00:13.053Z,100570.79
2019-01-15T11:02:42.695Z,100577.64
2019-01-15T11:05:12.582Z,100571.77
2019-01-15T11:07:42.127Z,100558.47
2019-01-15T11:10:14.912Z,100572.53
2019-01-15T11:12:44.428Z,100556.34
2019-01-15T11:15:14.059Z,100552.63
2019-01-15T11:17:43.682Z,100543.95
2019-01-15T11:20:16.422Z,100542.33
2019-01-15T11:22:46.073Z,100534.39
2019-01-15T11:25:15.666Z,100534.70
2019-01-15T11:27:45.275Z,100533.55
2019-01-15T11:30:15.397Z,100549.09
2019-01-15T11:32:44.914Z,100535.17
2019-01-15T11:35:14.582Z,100535.03
2019-01-15T11:37:44.276Z,100548.72
2019-01-15T11:40:15.682Z,100540.03
2019-01-15T11:42:45.223Z,100536.20
2019-01-15T11:45:21.161Z,100533.38
2019-01-15T11:47:51.187Z,100534.84
2019-01-15T11:50:23.767Z,100533.11
2019-01-15T11:52:53.655Z,100529.91
2019-01-15T11:55:23.246Z,100521.94
2019-01-15T11:57:52.808Z,100510.25
2019-01-15T12:00:26.281Z,100493.67
2019-01-15T12:03:00.693Z,100488.59
2019-01-15T12:05:34.778Z,100493.09
2019-01-15T12:08:11.552Z,100488.39
2019-01-15T12:10:59.180Z,100479.22
2019-01-15T12:13:32.907Z,100474.41
2019-01-15T12:16:20.004Z,100458.41
2019-01-15T12:19:07.376Z,100473.83
2019-01-15T12:21:47.549Z,100470.36
2019-01-15T12:24:21.749Z,100469.89
2019-01-15T12:26:52.965Z,100468.23
2019-01-15T12:29:29.878Z,100482.81
2019-01-15T12:32:01.129Z,100482.11
2019-01-15T12:34:48.346Z,100482.88
2019-01-15T12:37:19.542Z,100470.55
2019-01-15T12:40:07.524Z,100466.03
2019-01-15T12:42:55.246Z,100457.94
2019-01-15T12:45:27.490Z,100456.59
2019-01-15T12:48:11.106Z,100456.78
2019-01-15T12:50:58.191Z,100454.73
2019-01-15T12:53:29.388Z,100451.19
2019-01-15T12:56:15.598Z,100447.80
2019-01-15T12:58:46.776Z,100447.33
2019-01-15T13:01:17.944Z,100448.09
2019-01-15T13:04:07.195Z,100446.75
2019-01-15T13:06:38.317Z,100432.87
2019-01-15T13:09:26.293Z,100430.82
2019-01-15T13:12:09.189Z,100430.44
2019-01-15T13:14:58.379Z,100426.69
2019-01-15T13:17:29.727Z,100430.73
2019-01-15T13:20:17.302Z,100424.58
2019-01-15T13:22:54.186Z,100429.77
2019-01-15T13:25:31.025Z,100413.87
2019-01-15T13:28:08.307Z,100417.55
2019-01-15T13:30:55.543Z,100412.41
2019-01-15T13:33:26.804Z,100417.23
2019-01-15T13:35:58.289Z,100420.31
2019-01-15T13:38:29.573Z,100422.55
2019-01-15T13:41:00.838Z,100425.12
2019-01-15T13:43:34.878Z,100407.58
2019-01-15T13:46:09.396Z,100402.77
2019-01-15T13:48:40.645Z,100414.14
2019-01-15T13:51:21.252Z,100407.50
2019-01-15T13:54:08.647Z,100411.63
2019-01-15T13:56:42.360Z,100396.20
2019-01-15T13:59:13.696Z,100395.34
2019-01-15T14:01:45.026Z,100406.61
2019-01-15T14:04:16.337Z,100390.59
2019-01-15T14:06:59.567Z,100392.53
2019-01-15T14:09:37.117Z,100401.02
2019-01-15T14:12:14.272Z,100382.03
2019-01-15T14:15:00.791Z,100395.73
2019-01-15T14:17:32.234Z,100383.66
2019-01-15T14:20:06.892Z,100385.39
2019-01-15T14:22:38.139Z,100390.03
2019-01-15T14:25:25.989Z,100379.91
2019-01-15T14:28:02.963Z,100389.25
2019-01-15T14:30:40.051Z,100377.68
2019-01-15T14:33:11.208Z,100378.36
2019-01-15T14:35:54.610Z,100391.18
2019-01-15T14:38:42.171Z,100387.05
2019-01-15T14:41:22.667Z,100386.84
2019-01-15T14:43:54.005Z,100382.50
2019-01-15T14:46:37.639Z,100381.51
2019-01-15T14:49:08.788Z,100375.26
2019-01-15T14:51:39.937Z,100395.02
2019-01-15T14:54:29.401Z,100385.56
2019-01-15T14:57:06.652Z,100391.45
2019-01-15T14:59:43.309Z,100384.39
2019-01-15T15:02:14.641Z,100399.95
2019-01-15T15:04:45.924Z,100401.77
2019-01-15T15:07:25.731Z,100396.28
2019-01-15T15:10:03.242Z,100398.48
2019-01-15T15:12:40.595Z,100397.22
2019-01-15T15:15:15.066Z,100400.77
2019-01-15T15:17:49.265Z,100413.31
2019-01-15T15:20:20.747Z,100418.24
2019-01-15T15:23:03.788Z,100403.86
2019-01-15T15:25:44.123Z,100412.14
2019-01-15T15:28:31.402Z,100424.88
2019-01-15T15:31:02.816Z,100422.18
2019-01-15T15:33:37.258Z,100415.05
2019-01-15T15:36:23.803Z,100410.99
2019-01-15T15:39:03.736Z,100415.55
2019-01-15T15:41:46.791Z,100416.39
2019-01-15T15:44:20.765Z,100420.24
2019-01-15T15:47:01.122Z,100424.86
2019-01-15T15:49:32.379Z,100433.55
2019-01-15T15:52:12.224Z,100441.65
2019-01-15T15:54:49.696Z,100439.45
2019-01-15T15:57:32.910Z,100443.69
2019-01-15T16:00:04.319Z,100431.61
2019-01-15T16:02:52.358Z,100430.09
2019-01-15T16:05:26.432Z,100419.17
2019-01-15T16:07:57.822Z,100427.39
2019-01-15T16:10:28.980Z,100423.34
2019-01-15T16:13:00.141Z,100426.13
2019-01-15T16:15:40.702Z,100432.96
2019-01-15T16:18:11.983Z,100432.20
2019-01-15T16:20:46.214Z,100426.80
2019-01-15T16:23:20.331Z,100434.53
2019-01-15T16:25:51.553Z,100429.77
2019-01-15T16:28:31.876Z,100428.54
2019-01-15T16:31:18.111Z,100426.42
2019-01-15T16:33:55.523Z,100414.33
2019-01-15T16:36:32.556Z,100423.52
2019-01-15T16:39:10.668Z,100426.02
2019-01-15T16:41:42.007Z,100424.48
2019-01-15T16:44:25.297Z,100434.20
2019-01-15T16:47:13.110Z,100432.47
2019-01-15T16:49:47.338Z,100440.37
2019-01-15T16:52:35.340Z,100429.56
2019-01-15T16:55:13.370Z,100433.17
2019-01-15T16:57:53.656Z,100429.98
2019-01-15T17:00:34.066Z,100428.16
2019-01-15T17:03:11.184Z,100432.59
2019-01-15T17:05:58.542Z,100429.69
2019-01-15T17:08:41.660Z,100435.94
2019-01-15T17:11:15.974Z,100432.97
2019-01-15T17:13:47.396Z,100421.58
2019-01-15T17:16:24.322Z,100440.37
2019-01-15T17:19:01.565Z,100430.53
2019-01-15T17:21:50.997Z,100439.14
2019-01-15T17:24:32.278Z,100439.14
2019-01-15T17:27:09.320Z,100434.30
2019-01-15T17:29:53.037Z,100443.46
2019-01-15T17:32:27.208Z,100446.91
2019-01-15T17:35:07.730Z,100436.39
2019-01-15T17:37:45.083Z,100431.45
2019-01-15T17:40:32.631Z,100449.23
2019-01-15T17:43:18.993Z,100441.00
2019-01-15T17:45:50.678Z,100442.27
2019-01-15T17:48:30.965Z,100445.55
2019-01-15T17:51:08.249Z,100451.55
2019-01-15T17:53:51.090Z,100452.31
2019-01-15T17:56:25.346Z,100449.34
2019-01-15T17:58:57.835Z,100451.08
2019-01-15T18:01:47.370Z,100450.60
2019-01-15T18:04:27.986Z,100449.52
2019-01-15T18:07:11.323Z,100447.28
2019-01-15T18:09:42.568Z,100455.95
2019-01-15T18:12:14.056Z,100460.21
2019-01-15T18:14:54.448Z,100461.36
2019-01-15T18:17:25.793Z,100464.19
2019-01-15T18:20:13.231Z,100461.36
2019-01-15T18:23:02.610Z,100462.89
2019-01-15T18:25:35.546Z,100461.86
2019-01-15T18:28:18.612Z,100462.12
2019-01-15T18:30:56.222Z,100466.12
2019-01-15T18:33:46.200Z,100470.03
2019-01-15T18:36:17.611Z,100468.23
2019-01-15T18:39:07.775Z,100474.11
2019-01-15T18:41:45.138Z,100469.67
2019-01-15T18:44:19.257Z,100477.69
2019-01-15T18:46:59.503Z,100479.11
2019-01-15T18:49:30.636Z,100471.20
2019-01-15T18:52:01.838Z,100479.98
2019-01-15T18:54:33.068Z,100481.65
2019-01-15T18:57:13.406Z,100480.09
2019-01-15T18:59:44.566Z,100482.13
2019-01-15T19:02:30.708Z,100484.15
2019-01-15T19:05:01.843Z,100477.02
2019-01-15T19:07:48.031Z,100488.52
2019-01-15T19:10:22.063Z,100475.40
2019-01-15T19:13:05.227Z,100486.79
2019-01-15T19:15:55.193Z,100481.77
2019-01-15T19:18:28.620Z,100487.55
2019-01-15T19:21:11.758Z,100476.83
2019-01-15T19:23:45.617Z,100471.75
2019-01-15T19:26:16.809Z,100474.06
2019-01-15T19:28:50.942Z,100481.47
2019-01-15T19:31:22.088Z,100471.05
2019-01-15T19:33:58.916Z,100473.95
2019-01-15T19:36:30.191Z,100476.47
2019-01-15T19:39:05.222Z,100478.50
2019-01-15T19:41:42.276Z,100479.67
2019-01-15T19:44:29.552Z,100474.06
2019-01-15T19:47:10.675Z,100472.33
2019-01-15T19:49:51.212Z,100474.73
2019-01-15T19:52:31.492Z,100468.86
2019-01-15T19:55:02.643Z,100473.09
2019-01-15T19:57:33.768Z,100468.16
2019-01-15T20:00:09.262Z,100472.33
2019-01-15T20:02:52.660Z,100470.28
2019-01-15T20:05:26.687Z,100474.66
2019-01-15T20:07:57.827Z,100475.98
2019-01-15T20:10:29.196Z,100473.86
2019-01-15T20:13:18.368Z,100462.88
2019-01-15T20:15:52.302Z,100472.21
2019-01-15T20:18:26.134Z,100473.95
2019-01-15T20:20:57.384Z,100467.59
2019-01-15T20:23:43.726Z,100467.78
2019-01-15T20:26:14.940Z,100467.89
2019-01-15T20:29:02.455Z,100478.41
2019-01-15T20:31:42.458Z,100480.66
2019-01-15T20:34:13.767Z,100478.70
2019-01-15T20:36:54.120Z,100473.88
2019-01-15T20:39:31.124Z,100479.85
2019-01-15T20:42:20.619Z,100477.07
2019-01-15T20:45:08.160Z,100472.80
2019-01-15T20:47:45.414Z,100467.72
2019-01-15T20:50:25.715Z,100471.00
2019-01-15T20:53:13.188Z,100471.18
2019-01-15T20:55:44.612Z,100468.95
2019-01-15T20:58:32.526Z,100464.63
2019-01-15T21:01:15.443Z,100463.86
2019-01-15T21:03:58.593Z,100471.97
2019-01-15T21:06:32.524Z,100465.20
2019-01-15T21:09:12.951Z,100469.81
2019-01-15T21:12:02.302Z,100475.42
2019-01-15T21:14:51.864Z,100484.11
2019-01-15T21:17:32.704Z,100483.32
2019-01-15T21:20:08.577Z,100476.95
2019-01-15T21:22:48.710Z,100482.94
2019-01-15T21:25:19.853Z,100483.78
2019-01-15T21:27:53.529Z,100483.41
2019-01-15T21:30:41.495Z,100488.14
2019-01-15T21:33:16.180Z,100478.48
2019-01-15T21:35:53.142Z,100478.86
2019-01-15T21:38:27.096Z,100484.86
2019-01-15T21:41:14.451Z,100481.95
2019-01-15T21:43:48.039Z,100474.63
2019-01-15T21:46:19.168Z,100488.52
2019-01-15T21:48:52.809Z,100481.36
2019-01-15T21:51:29.890Z,100486.39
2019-01-15T21:54:01.057Z,100486.20
2019-01-15T21:56:32.288Z,100482.53
2019-01-15T21:59:03.542Z,100485.03
2019-01-15T22:01:40.663Z,100484.83
2019-01-15T22:04:17.262Z,100487.55
2019-01-15T22:06:54.306Z,100495.66
2019-01-15T22:09:31.043Z,100494.39
2019-01-15T22:12:02.212Z,100499.53
2019-01-15T22:14:50.050Z,100497.87
2019-01-15T22:17:21.184Z,100495.36
2019-01-15T22:19:55.001Z,100488.81
2019-01-15T22:22:44.394Z,100499.53
2019-01-15T22:25:21.239Z,100491.63
2019-01-15T22:28:07.306Z,100499.73
2019-01-15T22:30:38.453Z,100507.27
2019-01-15T22:33:25.782Z,100496.53
2019-01-15T22:36:02.884Z,100501.55
2019-01-15T22:38:39.730Z,100500.12
2019-01-15T22:41:23.192Z,100501.94
2019-01-15T22:44:11.134Z,100498.19
2019-01-15T22:46:45.173Z,100501.65
2019-01-15T22:49:16.299Z,100498.16
2019-01-15T22:52:05.509Z,100494.31
2019-01-15T22:54:36.627Z,100487.73
2019-01-15T22:57:26.153Z,100501.33
2019-01-15T23:00:03.222Z,100501.45
2019-01-15T23:02:34.422Z,100504.94
2019-01-15T23:05:05.558Z,100489.47
2019-01-15T23:07:42.601Z,100493.42
2019-01-15T23:10:29.884Z,100495.66
2019-01-15T23:13:01.148Z,100487.94
2019-01-15T23:15:37.788Z,100493.25
2019-01-15T23:18:08.958Z,100498.27
2019-01-15T23:20:40.080Z,100496.72
2019-01-15T23:23:27.614Z,100500.00
2019-01-15T23:26:01.480Z,100490.14
2019-01-15T23:28:35.076Z,100495.86
2019-01-15T23:31:12.748Z,100491.31
2019-01-15T23:33:49.704Z,100496.06
2019-01-15T23:36:26.675Z,100494.41
2019-01-15T23:39:14.132Z,100489.89
2019-01-15T23:41:53.837Z,100495.30
2019-01-15T23:44:41.079Z,100492.28
2019-01-15T23:47:28.721Z,100492.03
2019-01-15T23:50:05.602Z,100501.95
2019-01-15T23:52:36.751Z,100486.12
2019-01-15T23:55:07.998Z,100477.37
2019-01-15T23:57:47.939Z,100481.04
